Kristin D — C6XA6 — position and weather

sailwx.info

Track history (hours):
 
Tides and Currents Weather Stations Pressure Air Temp Water Temp Dewpoint Dewpoint Depression Visibility Wind Speed Wind Dir Waves Ship Positions

Kristin D

Last reported at 2016-Aug-28 23:34 UTC. Time now 2016-Aug-29 00:11 UTC.
Position N 58°56' E 005°35'.

Length 90 m; draft 3.8 m.

Type: Cargo ship. MMSI: 311003700.

Date/timePositionNaut miles runAvg speedWind from/ knotsBaromVisibWave heightAir tempDewpointWater temp
2016-Aug-28 23:34N 58°56' E 005°35'8 8.0
2016-Aug-28 22:33N 58°49' E 005°26'7 7.4
2016-Aug-28 21:33N 58°42' E 005°28'1111.0
2016-Aug-28 20:32N 58°32' E 005°38'1111.8
2016-Aug-28 19:33N 58°23' E 005°53'1312.4
2016-Aug-28 18:33N 58°14' E 006°10'1110.6
2016-Aug-28 17:28N 58°06' E 006°25'6 6.7
2016-Aug-28 16:33N 58°02' E 006°33'7 7.3
2016-Aug-28 15:33N 57°57' E 006°44'8 8.0
2016-Aug-28 14:33N 57°52' E 006°55'129 3.3
2016-Aug-26 23:31N 55°43' E 006°52'9513.1
2016-Aug-26 16:16N 54°23' E 005°25'913.2
2016-Aug-26 15:33N 54°15' E 005°17'1313.2
2016-Aug-26 14:33N 54°03' E 005°06'1313.2
2016-Aug-26 13:32N 53°50' E 004°58'1313.3
2016-Aug-26 12:32N 53°38' E 004°50'2813.9
2016-Aug-26 10:31N 53°12' E 004°33'1414.6
2016-Aug-26 09:34N 52°59' E 004°21'1414.3
2016-Aug-26 08:33N 52°47' E 004°10'1614.1
2016-Aug-26 07:27N 52°36' E 003°52'1313.7
2016-Aug-26 06:30N 52°26' E 003°37'4812.2
2016-Aug-26 02:33N 51°55' E 002°37'1111.2
2016-Aug-26 01:33N 51°49' E 002°22'1211.5
2016-Aug-26 00:33N 51°42' E 002°07'1211.8
2016-Aug-25 23:33N 51°36' E 001°51'1312.6
2016-Aug-25 22:33N 51°28' E 001°35'9 8.7
2016-Aug-25 21:33N 51°28' E 001°21'1414.1
2016-Aug-25 20:33N 51°29' E 000°58'9 8.5
2016-Aug-25 19:31N 51°26' E 000°44'0 0.0
2016-Aug-25 18:25N 51°26' E 000°44'0 0.0
2016-Aug-25 17:31N 51°26' E 000°44'0 0.0
2016-Aug-25 16:31N 51°26' E 000°44'0 0.0
2016-Aug-25 15:31N 51°26' E 000°44'0 0.0
2016-Aug-25 14:31N 51°26' E 000°44'0 0.0
2016-Aug-25 13:31N 51°26' E 000°44'0 0.0
2016-Aug-25 12:31N 51°26' E 000°44'0 0.0
2016-Aug-25 11:31N 51°26' E 000°44'0 0.0
2016-Aug-25 10:31N 51°26' E 000°44'0 0.0
2016-Aug-25 09:31N 51°26' E 000°44'0 0.0
2016-Aug-25 08:31N 51°26' E 000°44'0 0.0
2016-Aug-25 07:31N 51°26' E 000°44'0 0.0
2016-Aug-25 06:34N 51°26' E 000°44'0 0.0
2016-Aug-25 04:33N 51°26' E 000°44'0 0.0
2016-Aug-25 03:33N 51°26' E 000°44'0 0.0
2016-Aug-25 02:33N 51°26' E 000°44'0 0.0
2016-Aug-25 01:33N 51°26' E 000°44'0 0.0
2016-Aug-25 00:33N 51°26' E 000°44'0 0.0
2016-Aug-24 23:33N 51°26' E 000°44'0 0.0
2016-Aug-24 22:33N 51°26' E 000°44'0 0.0
2016-Aug-24 21:33N 51°26' E 000°44'0 0.0
2016-Aug-24 20:33N 51°26' E 000°44'0 0.0
2016-Aug-24 19:30N 51°26' E 000°44'0 0.0
2016-Aug-24 18:33N 51°26' E 000°44'0 0.0
2016-Aug-24 17:33N 51°26' E 000°44'0 0.0
2016-Aug-24 16:33N 51°26' E 000°44'0 0.0
2016-Aug-24 15:33N 51°26' E 000°44'0 0.0
2016-Aug-24 14:33N 51°26' E 000°44'0 0.0
2016-Aug-24 13:30N 51°26' E 000°44'0 0.0
2016-Aug-24 12:33N 51°26' E 000°44'0 0.0
2016-Aug-24 11:27N 51°26' E 000°44'0 0.0
2016-Aug-24 10:33N 51°26' E 000°44'0 0.0
2016-Aug-24 09:30N 51°26' E 000°44'0 0.0
2016-Aug-24 08:33N 51°26' E 000°44'0 0.0
2016-Aug-24 07:33N 51°26' E 000°44'0 0.0
2016-Aug-24 06:33N 51°26' E 000°44'0 0.0
2016-Aug-24 04:33N 51°26' E 000°44'0 0.0
2016-Aug-24 03:33N 51°26' E 000°44'0 0.0
2016-Aug-24 02:33N 51°26' E 000°44'0 0.0
2016-Aug-24 01:30N 51°26' E 000°44'0 0.0
2016-Aug-24 00:33N 51°26' E 000°44'0 0.0
2016-Aug-23 23:33N 51°26' E 000°44'0 0.0
2016-Aug-23 22:33N 51°26' E 000°44'0 0.0
2016-Aug-23 21:33N 51°26' E 000°44'0 0.0
2016-Aug-23 20:33N 51°26' E 000°44'0 0.0
2016-Aug-23 19:33N 51°26' E 000°44'0 0.0
2016-Aug-23 18:33N 51°26' E 000°44'3 3.3
2016-Aug-23 17:34N 51°28' E 000°49'1110.9
2016-Aug-23 16:33N 51°30' E 001°06'1212.3
2016-Aug-23 15:34N 51°27' E 001°26'3 2.7
2016-Aug-23 14:33N 51°25' E 001°24'0 0.2
2016-Aug-23 13:33N 51°25' E 001°25'0 0.0
2016-Aug-23 12:33N 51°25' E 001°25'0 0.0
2016-Aug-23 11:34N 51°25' E 001°25'0 0.0
2016-Aug-23 10:34N 51°25' E 001°25'0 0.1
2016-Aug-23 09:33N 51°25' E 001°25'0 0.0
2016-Aug-23 08:34N 51°25' E 001°25'0 0.0
2016-Aug-23 07:33N 51°25' E 001°25'0 0.0
2016-Aug-23 06:33N 51°25' E 001°25'0 0.0
2016-Aug-23 05:34N 51°25' E 001°25'0 0.0
2016-Aug-23 04:33N 51°25' E 001°25'0 0.1
2016-Aug-23 03:33N 51°25' E 001°25'0 0.0
2016-Aug-23 02:33N 51°25' E 001°25'0 0.0
2016-Aug-23 01:33N 51°25' E 001°25'0 0.1
2016-Aug-23 00:33N 51°25' E 001°25'0 0.0
2016-Aug-22 23:33N 51°25' E 001°25'0 0.0
2016-Aug-22 22:33N 51°25' E 001°25'0 0.1
2016-Aug-22 21:34N 51°25' E 001°25'0 0.0
2016-Aug-22 20:33N 51°25' E 001°25'0 0.0
2016-Aug-22 19:33N 51°25' E 001°25'0 0.0
2016-Aug-22 18:33N 51°25' E 001°25'0 0.0
2016-Aug-22 17:33N 51°25' E 001°25'0 0.0
2016-Aug-22 16:33N 51°25' E 001°25'0 0.0
2016-Aug-22 15:33N 51°25' E 001°25'0 0.2
2016-Aug-22 14:33N 51°25' E 001°25'0 0.0
2016-Aug-22 13:34N 51°25' E 001°25'0 0.0
2016-Aug-22 12:33N 51°25' E 001°25'0 0.1
2016-Aug-22 11:33N 51°25' E 001°25'0 0.0
2016-Aug-22 10:34N 51°25' E 001°25'0 0.1
2016-Aug-22 09:34N 51°25' E 001°25'0 0.0
2016-Aug-22 08:33N 51°25' E 001°25'0 0.0
2016-Aug-22 07:33N 51°25' E 001°25'0 0.0
2016-Aug-22 06:34N 51°25' E 001°25'0 0.0
2016-Aug-22 05:33N 51°25' E 001°25'0 0.0
2016-Aug-22 04:33N 51°25' E 001°25'0 0.0
2016-Aug-22 03:33N 51°25' E 001°25'0 0.2
2016-Aug-22 02:33N 51°25' E 001°25'0 0.0
2016-Aug-22 01:33N 51°25' E 001°25'0 0.0
2016-Aug-22 00:34N 51°25' E 001°25'0 0.0
2016-Aug-21 23:34N 51°25' E 001°25'0 0.0
2016-Aug-21 22:33N 51°25' E 001°25'0 0.2
2016-Aug-21 21:33N 51°25' E 001°25'0 0.0
2016-Aug-21 20:33N 51°25' E 001°25'0 0.0
2016-Aug-21 19:34N 51°25' E 001°25'0 0.0
2016-Aug-21 18:33N 51°25' E 001°25'0 0.0
2016-Aug-21 17:34N 51°25' E 001°25'0 0.0
2016-Aug-21 16:33N 51°25' E 001°25'0 0.0
2016-Aug-21 15:33N 51°25' E 001°25'0 0.0
2016-Aug-21 14:34N 51°25' E 001°25'0 0.1
2016-Aug-21 13:34N 51°25' E 001°25'0 0.0
2016-Aug-21 12:33N 51°25' E 001°25'0 0.1
2016-Aug-21 11:33N 51°25' E 001°25'0 0.2
2016-Aug-21 10:34N 51°25' E 001°25'0 0.0
2016-Aug-21 09:33N 51°25' E 001°25'0 0.0
2016-Aug-21 08:33N 51°25' E 001°25'0 0.0
2016-Aug-21 07:33N 51°25' E 001°25'0 0.0
2016-Aug-21 06:33N 51°25' E 001°25'0 0.0
2016-Aug-21 05:33N 51°25' E 001°25'0 0.0
2016-Aug-21 04:33N 51°25' E 001°25'0 0.0
2016-Aug-21 03:33N 51°25' E 001°25'0 0.0
2016-Aug-21 02:33N 51°25' E 001°25'0 0.2
2016-Aug-21 01:34N 51°25' E 001°25'0 0.0
2016-Aug-21 00:33N 51°25' E 001°25'0 0.0
2016-Aug-20 23:33N 51°25' E 001°25'0 0.0
2016-Aug-20 22:33N 51°25' E 001°25'0 0.2
2016-Aug-20 21:33N 51°25' E 001°25'0 0.1
2016-Aug-20 20:33N 51°25' E 001°25'0 0.0
2016-Aug-20 19:33N 51°25' E 001°25'0 0.0
2016-Aug-20 18:33N 51°25' E 001°25'0 0.0
2016-Aug-20 17:33N 51°25' E 001°25'0 0.0
2016-Aug-20 16:33N 51°25' E 001°25'0 0.0
2016-Aug-20 15:33N 51°25' E 001°25'0 0.0
2016-Aug-20 14:34N 51°25' E 001°25'0 0.1
2016-Aug-20 13:34N 51°25' E 001°25'0 0.2
2016-Aug-20 12:33N 51°25' E 001°25'0 0.0
2016-Aug-20 11:33N 51°25' E 001°25'0 0.1
2016-Aug-20 10:33N 51°25' E 001°25'0 0.1
2016-Aug-20 09:33N 51°25' E 001°25'0 0.0
2016-Aug-20 08:33N 51°25' E 001°25'0 0.0
2016-Aug-20 07:34N 51°25' E 001°25'0 0.0
2016-Aug-20 06:33N 51°25' E 001°25'0 0.0
2016-Aug-20 05:33N 51°25' E 001°25'0 0.0
2016-Aug-20 04:34N 51°25' E 001°25'0 0.0
2016-Aug-20 03:33N 51°25' E 001°25'0 0.1
2016-Aug-20 02:33N 51°25' E 001°25'0 0.1
2016-Aug-20 01:33N 51°25' E 001°25'0 0.1
2016-Aug-20 00:33N 51°25' E 001°25'0 0.0
2016-Aug-19 23:33N 51°25' E 001°25'0 0.0
2016-Aug-19 22:33N 51°25' E 001°25'0 0.1
2016-Aug-19 21:33N 51°25' E 001°25'0 0.1
2016-Aug-19 20:33N 51°25' E 001°25'0 0.1
2016-Aug-19 19:34N 51°25' E 001°25'0 0.0
2016-Aug-19 18:33N 51°25' E 001°25'0 0.0
2016-Aug-19 17:33N 51°25' E 001°25'0 0.0
2016-Aug-19 16:33N 51°25' E 001°25'0 0.0
2016-Aug-19 15:33N 51°25' E 001°25'9 9.1
2016-Aug-19 14:33N 51°30' E 001°37'1010.1
2016-Aug-19 13:34N 51°37' E 001°50'1010.0
2016-Aug-19 12:33N 51°43' E 002°02'1211.7
2016-Aug-19 11:34N 51°51' E 002°15'1312.8
2016-Aug-19 10:33N 52°00' E 002°30'1413.7
2016-Aug-19 09:33N 52°10' E 002°46'1413.7
2016-Aug-19 08:33N 52°21' E 003°01'1313.4
2016-Aug-19 07:33N 52°30' E 003°16'1111.1
2016-Aug-19 06:33N 52°38' E 003°29'1111.2
2016-Aug-19 05:33N 52°46' E 003°42'1110.7
2016-Aug-19 04:32N 52°54' E 003°55'1010.4
2016-Aug-19 03:32N 53°01' E 004°07'1111.1
2016-Aug-19 02:30N 53°09' E 004°20'1512.3
2016-Aug-19 01:16N 53°22' E 004°33'912.3
2016-Aug-19 00:33N 53°28' E 004°43'  
Track history (hours):
 
Tides and Currents Weather Stations Pressure Air Temp Water Temp Dewpoint Dewpoint Depression Visibility Wind Speed Wind Dir Waves Ship Positions

Kristin D

Last reported at 2016-Aug-28 23:34 UTC. Time now 2016-Aug-29 00:11 UTC.
Position N 58°56' E 005°35'.

Length 90 m; draft 3.8 m.

Type: Cargo ship. MMSI: 311003700.

Date/timePositionNaut miles runAvg speedWind from/ knotsBaromVisibWave heightAir tempDewpointWater temp
2016-Aug-28 23:34N 58°56' E 005°35'8 8.0
2016-Aug-28 22:33N 58°49' E 005°26'7 7.4
2016-Aug-28 21:33N 58°42' E 005°28'1111.0
2016-Aug-28 20:32N 58°32' E 005°38'1111.8
2016-Aug-28 19:33N 58°23' E 005°53'1312.4
2016-Aug-28 18:33N 58°14' E 006°10'1110.6
2016-Aug-28 17:28N 58°06' E 006°25'6 6.7
2016-Aug-28 16:33N 58°02' E 006°33'7 7.3
2016-Aug-28 15:33N 57°57' E 006°44'8 8.0
2016-Aug-28 14:33N 57°52' E 006°55'129 3.3
2016-Aug-26 23:31N 55°43' E 006°52'9513.1
2016-Aug-26 16:16N 54°23' E 005°25'913.2
2016-Aug-26 15:33N 54°15' E 005°17'1313.2
2016-Aug-26 14:33N 54°03' E 005°06'1313.2
2016-Aug-26 13:32N 53°50' E 004°58'1313.3
2016-Aug-26 12:32N 53°38' E 004°50'2813.9
2016-Aug-26 10:31N 53°12' E 004°33'1414.6
2016-Aug-26 09:34N 52°59' E 004°21'1414.3
2016-Aug-26 08:33N 52°47' E 004°10'1614.1
2016-Aug-26 07:27N 52°36' E 003°52'1313.7
2016-Aug-26 06:30N 52°26' E 003°37'4812.2
2016-Aug-26 02:33N 51°55' E 002°37'1111.2
2016-Aug-26 01:33N 51°49' E 002°22'1211.5
2016-Aug-26 00:33N 51°42' E 002°07'1211.8
2016-Aug-25 23:33N 51°36' E 001°51'1312.6
2016-Aug-25 22:33N 51°28' E 001°35'9 8.7
2016-Aug-25 21:33N 51°28' E 001°21'1414.1
2016-Aug-25 20:33N 51°29' E 000°58'9 8.5
2016-Aug-25 19:31N 51°26' E 000°44'0 0.0
2016-Aug-25 18:25N 51°26' E 000°44'0 0.0
2016-Aug-25 17:31N 51°26' E 000°44'0 0.0
2016-Aug-25 16:31N 51°26' E 000°44'0 0.0
2016-Aug-25 15:31N 51°26' E 000°44'0 0.0
2016-Aug-25 14:31N 51°26' E 000°44'0 0.0
2016-Aug-25 13:31N 51°26' E 000°44'0 0.0
2016-Aug-25 12:31N 51°26' E 000°44'0 0.0
2016-Aug-25 11:31N 51°26' E 000°44'0 0.0
2016-Aug-25 10:31N 51°26' E 000°44'0 0.0
2016-Aug-25 09:31N 51°26' E 000°44'0 0.0
2016-Aug-25 08:31N 51°26' E 000°44'0 0.0
2016-Aug-25 07:31N 51°26' E 000°44'0 0.0
2016-Aug-25 06:34N 51°26' E 000°44'0 0.0
2016-Aug-25 04:33N 51°26' E 000°44'0 0.0
2016-Aug-25 03:33N 51°26' E 000°44'0 0.0
2016-Aug-25 02:33N 51°26' E 000°44'0 0.0
2016-Aug-25 01:33N 51°26' E 000°44'0 0.0
2016-Aug-25 00:33N 51°26' E 000°44'0 0.0
2016-Aug-24 23:33N 51°26' E 000°44'0 0.0
2016-Aug-24 22:33N 51°26' E 000°44'0 0.0
2016-Aug-24 21:33N 51°26' E 000°44'0 0.0
2016-Aug-24 20:33N 51°26' E 000°44'0 0.0
2016-Aug-24 19:30N 51°26' E 000°44'0 0.0
2016-Aug-24 18:33N 51°26' E 000°44'0 0.0
2016-Aug-24 17:33N 51°26' E 000°44'0 0.0
2016-Aug-24 16:33N 51°26' E 000°44'0 0.0
2016-Aug-24 15:33N 51°26' E 000°44'0 0.0
2016-Aug-24 14:33N 51°26' E 000°44'0 0.0
2016-Aug-24 13:30N 51°26' E 000°44'0 0.0
2016-Aug-24 12:33N 51°26' E 000°44'0 0.0
2016-Aug-24 11:27N 51°26' E 000°44'0 0.0
2016-Aug-24 10:33N 51°26' E 000°44'0 0.0
2016-Aug-24 09:30N 51°26' E 000°44'0 0.0
2016-Aug-24 08:33N 51°26' E 000°44'0 0.0
2016-Aug-24 07:33N 51°26' E 000°44'0 0.0
2016-Aug-24 06:33N 51°26' E 000°44'0 0.0
2016-Aug-24 04:33N 51°26' E 000°44'0 0.0
2016-Aug-24 03:33N 51°26' E 000°44'0 0.0
2016-Aug-24 02:33N 51°26' E 000°44'0 0.0
2016-Aug-24 01:30N 51°26' E 000°44'0 0.0
2016-Aug-24 00:33N 51°26' E 000°44'0 0.0
2016-Aug-23 23:33N 51°26' E 000°44'0 0.0
2016-Aug-23 22:33N 51°26' E 000°44'0 0.0
2016-Aug-23 21:33N 51°26' E 000°44'0 0.0
2016-Aug-23 20:33N 51°26' E 000°44'0 0.0
2016-Aug-23 19:33N 51°26' E 000°44'0 0.0
2016-Aug-23 18:33N 51°26' E 000°44'3 3.3
2016-Aug-23 17:34N 51°28' E 000°49'1110.9
2016-Aug-23 16:33N 51°30' E 001°06'1212.3
2016-Aug-23 15:34N 51°27' E 001°26'3 2.7
2016-Aug-23 14:33N 51°25' E 001°24'0 0.2
2016-Aug-23 13:33N 51°25' E 001°25'0 0.0
2016-Aug-23 12:33N 51°25' E 001°25'0 0.0
2016-Aug-23 11:34N 51°25' E 001°25'0 0.0
2016-Aug-23 10:34N 51°25' E 001°25'0 0.1
2016-Aug-23 09:33N 51°25' E 001°25'0 0.0
2016-Aug-23 08:34N 51°25' E 001°25'0 0.0
2016-Aug-23 07:33N 51°25' E 001°25'0 0.0
2016-Aug-23 06:33N 51°25' E 001°25'0 0.0
2016-Aug-23 05:34N 51°25' E 001°25'0 0.0
2016-Aug-23 04:33N 51°25' E 001°25'0 0.1
2016-Aug-23 03:33N 51°25' E 001°25'0 0.0
2016-Aug-23 02:33N 51°25' E 001°25'0 0.0
2016-Aug-23 01:33N 51°25' E 001°25'0 0.1
2016-Aug-23 00:33N 51°25' E 001°25'0 0.0
2016-Aug-22 23:33N 51°25' E 001°25'0 0.0
2016-Aug-22 22:33N 51°25' E 001°25'0 0.1
2016-Aug-22 21:34N 51°25' E 001°25'0 0.0
2016-Aug-22 20:33N 51°25' E 001°25'0 0.0
2016-Aug-22 19:33N 51°25' E 001°25'0 0.0
2016-Aug-22 18:33N 51°25' E 001°25'0 0.0
2016-Aug-22 17:33N 51°25' E 001°25'0 0.0
2016-Aug-22 16:33N 51°25' E 001°25'0 0.0
2016-Aug-22 15:33N 51°25' E 001°25'0 0.2
2016-Aug-22 14:33N 51°25' E 001°25'0 0.0
2016-Aug-22 13:34N 51°25' E 001°25'0 0.0
2016-Aug-22 12:33N 51°25' E 001°25'0 0.1
2016-Aug-22 11:33N 51°25' E 001°25'0 0.0
2016-Aug-22 10:34N 51°25' E 001°25'0 0.1
2016-Aug-22 09:34N 51°25' E 001°25'0 0.0
2016-Aug-22 08:33N 51°25' E 001°25'0 0.0
2016-Aug-22 07:33N 51°25' E 001°25'0 0.0
2016-Aug-22 06:34N 51°25' E 001°25'0 0.0
2016-Aug-22 05:33N 51°25' E 001°25'0 0.0
2016-Aug-22 04:33N 51°25' E 001°25'0 0.0
2016-Aug-22 03:33N 51°25' E 001°25'0 0.2
2016-Aug-22 02:33N 51°25' E 001°25'0 0.0
2016-Aug-22 01:33N 51°25' E 001°25'0 0.0
2016-Aug-22 00:34N 51°25' E 001°25'0 0.0
2016-Aug-21 23:34N 51°25' E 001°25'0 0.0
2016-Aug-21 22:33N 51°25' E 001°25'0 0.2
2016-Aug-21 21:33N 51°25' E 001°25'0 0.0
2016-Aug-21 20:33N 51°25' E 001°25'0 0.0
2016-Aug-21 19:34N 51°25' E 001°25'0 0.0
2016-Aug-21 18:33N 51°25' E 001°25'0 0.0
2016-Aug-21 17:34N 51°25' E 001°25'0 0.0
2016-Aug-21 16:33N 51°25' E 001°25'0 0.0
2016-Aug-21 15:33N 51°25' E 001°25'0 0.0
2016-Aug-21 14:34N 51°25' E 001°25'0 0.1
2016-Aug-21 13:34N 51°25' E 001°25'0 0.0
2016-Aug-21 12:33N 51°25' E 001°25'0 0.1
2016-Aug-21 11:33N 51°25' E 001°25'0 0.2
2016-Aug-21 10:34N 51°25' E 001°25'0 0.0
2016-Aug-21 09:33N 51°25' E 001°25'0 0.0
2016-Aug-21 08:33N 51°25' E 001°25'0 0.0
2016-Aug-21 07:33N 51°25' E 001°25'0 0.0
2016-Aug-21 06:33N 51°25' E 001°25'0 0.0
2016-Aug-21 05:33N 51°25' E 001°25'0 0.0
2016-Aug-21 04:33N 51°25' E 001°25'0 0.0
2016-Aug-21 03:33N 51°25' E 001°25'0 0.0
2016-Aug-21 02:33N 51°25' E 001°25'0 0.2
2016-Aug-21 01:34N 51°25' E 001°25'0 0.0
2016-Aug-21 00:33N 51°25' E 001°25'0 0.0
2016-Aug-20 23:33N 51°25' E 001°25'0 0.0
2016-Aug-20 22:33N 51°25' E 001°25'0 0.2
2016-Aug-20 21:33N 51°25' E 001°25'0 0.1
2016-Aug-20 20:33N 51°25' E 001°25'0 0.0
2016-Aug-20 19:33N 51°25' E 001°25'0 0.0
2016-Aug-20 18:33N 51°25' E 001°25'0 0.0
2016-Aug-20 17:33N 51°25' E 001°25'0 0.0
2016-Aug-20 16:33N 51°25' E 001°25'0 0.0
2016-Aug-20 15:33N 51°25' E 001°25'0 0.0
2016-Aug-20 14:34N 51°25' E 001°25'0 0.1
2016-Aug-20 13:34N 51°25' E 001°25'0 0.2
2016-Aug-20 12:33N 51°25' E 001°25'0 0.0
2016-Aug-20 11:33N 51°25' E 001°25'0 0.1
2016-Aug-20 10:33N 51°25' E 001°25'0 0.1
2016-Aug-20 09:33N 51°25' E 001°25'0 0.0
2016-Aug-20 08:33N 51°25' E 001°25'0 0.0
2016-Aug-20 07:34N 51°25' E 001°25'0 0.0
2016-Aug-20 06:33N 51°25' E 001°25'0 0.0
2016-Aug-20 05:33N 51°25' E 001°25'0 0.0
2016-Aug-20 04:34N 51°25' E 001°25'0 0.0
2016-Aug-20 03:33N 51°25' E 001°25'0 0.1
2016-Aug-20 02:33N 51°25' E 001°25'0 0.1
2016-Aug-20 01:33N 51°25' E 001°25'0 0.1
2016-Aug-20 00:33N 51°25' E 001°25'0 0.0
2016-Aug-19 23:33N 51°25' E 001°25'0 0.0
2016-Aug-19 22:33N 51°25' E 001°25'0 0.1
2016-Aug-19 21:33N 51°25' E 001°25'0 0.1
2016-Aug-19 20:33N 51°25' E 001°25'0 0.1
2016-Aug-19 19:34N 51°25' E 001°25'0 0.0
2016-Aug-19 18:33N 51°25' E 001°25'0 0.0
2016-Aug-19 17:33N 51°25' E 001°25'0 0.0
2016-Aug-19 16:33N 51°25' E 001°25'0 0.0
2016-Aug-19 15:33N 51°25' E 001°25'9 9.1
2016-Aug-19 14:33N 51°30' E 001°37'1010.1
2016-Aug-19 13:34N 51°37' E 001°50'1010.0
2016-Aug-19 12:33N 51°43' E 002°02'1211.7
2016-Aug-19 11:34N 51°51' E 002°15'1312.8
2016-Aug-19 10:33N 52°00' E 002°30'1413.7
2016-Aug-19 09:33N 52°10' E 002°46'1413.7
2016-Aug-19 08:33N 52°21' E 003°01'1313.4
2016-Aug-19 07:33N 52°30' E 003°16'1111.1
2016-Aug-19 06:33N 52°38' E 003°29'1111.2
2016-Aug-19 05:33N 52°46' E 003°42'1110.7
2016-Aug-19 04:32N 52°54' E 003°55'1010.4
2016-Aug-19 03:32N 53°01' E 004°07'1111.1
2016-Aug-19 02:30N 53°09' E 004°20'1512.3
2016-Aug-19 01:16N 53°22' E 004°33'912.3
2016-Aug-19 00:33N 53°28' E 004°43'  

Dump ship's entire track history